createdAt,value
2022-09-22T00:01:28.319Z,0
2022-09-22T00:03:30.075Z,0
2022-09-22T00:05:31.209Z,0
2022-09-22T00:07:32.419Z,0
2022-09-22T00:09:33.776Z,0
2022-09-22T00:11:35.707Z,0
2022-09-22T00:13:37.498Z,0
2022-09-22T00:15:38.463Z,0
2022-09-22T00:17:40.446Z,0
2022-09-22T00:19:42.251Z,0
2022-09-22T00:21:44.228Z,0
2022-09-22T00:23:45.417Z,0
2022-09-22T00:25:46.656Z,0
2022-09-22T00:27:48.535Z,0
2022-09-22T00:29:49.796Z,0
2022-09-22T00:31:51.493Z,0
2022-09-22T00:33:53.234Z,0
2022-09-22T00:35:54.271Z,0
2022-09-22T00:37:55.721Z,0
2022-09-22T00:39:57.037Z,0
2022-09-22T00:41:58.661Z,0
2022-09-22T00:44:00.269Z,0
2022-09-22T00:46:01.937Z,0
2022-09-22T00:48:03.416Z,0
2022-09-22T00:50:05.153Z,0
2022-09-22T00:52:06.281Z,0
2022-09-22T00:54:07.587Z,0
2022-09-22T00:56:08.636Z,0
2022-09-22T00:58:10.464Z,0
2022-09-22T01:00:12.438Z,0
2022-09-22T01:02:14.320Z,0
2022-09-22T01:04:15.641Z,0
2022-09-22T01:06:17.471Z,0
2022-09-22T01:08:19.130Z,0
2022-09-22T01:10:20.971Z,0
2022-09-22T01:12:22.563Z,0
2022-09-22T01:14:23.889Z,0
2022-09-22T01:16:25.334Z,0
2022-09-22T01:18:26.576Z,0
2022-09-22T01:20:28.151Z,0
2022-09-22T01:22:29.649Z,0
2022-09-22T01:24:31.017Z,0
2022-09-22T01:26:32.751Z,0
2022-09-22T01:28:34.298Z,0
2022-09-22T01:32:36.875Z,0
2022-09-22T01:34:38.090Z,0
2022-09-22T01:36:39.960Z,0
2022-09-22T01:38:41.837Z,0
2022-09-22T01:40:43.768Z,0
2022-09-22T01:42:44.865Z,0
2022-09-22T01:44:45.946Z,0
2022-09-22T01:46:47.114Z,0
2022-09-22T01:48:48.643Z,0
2022-09-22T01:52:51.365Z,0
2022-09-22T01:54:52.795Z,0
2022-09-22T01:56:54.367Z,0
2022-09-22T01:58:55.540Z,0
2022-09-22T02:02:58.724Z,0
2022-09-22T02:04:59.668Z,0
2022-09-22T02:07:01.609Z,0
2022-09-22T02:09:03.041Z,0
2022-09-22T02:11:04.385Z,0
2022-09-22T02:13:06.129Z,0
2022-09-22T02:15:07.582Z,0
2022-09-22T02:17:09.389Z,0
2022-09-22T02:19:13.234Z,0
2022-09-22T02:21:11.959Z,0
2022-09-22T02:23:13.701Z,0
2022-09-22T02:25:15.177Z,0
2022-09-22T02:27:16.425Z,0
2022-09-22T02:29:17.522Z,0
2022-09-22T02:31:20.578Z,0
2022-09-22T02:33:20.786Z,0
2022-09-22T02:35:22.426Z,0
2022-09-22T02:37:23.812Z,0
2022-09-22T02:39:25.347Z,0
2022-09-22T02:41:26.578Z,0
2022-09-22T02:43:28.128Z,0
2022-09-22T02:45:30.092Z,0
2022-09-22T02:47:31.862Z,0
2022-09-22T02:49:33.638Z,0
2022-09-22T02:51:35.193Z,0
2022-09-22T02:53:36.237Z,0
2022-09-22T02:55:37.340Z,0
2022-09-22T02:57:39.048Z,0
2022-09-22T02:59:41.041Z,0
2022-09-22T03:01:42.848Z,0
2022-09-22T03:03:44.169Z,0
2022-09-22T03:05:45.947Z,0
2022-09-22T03:07:47.690Z,0
2022-09-22T03:09:49.487Z,0
2022-09-22T03:11:51.175Z,0
2022-09-22T03:13:53.023Z,0
2022-09-22T03:15:54.326Z,0
2022-09-22T03:17:56.236Z,0
2022-09-22T03:19:58.167Z,0
2022-09-22T03:20:42.049Z,0
2022-09-22T03:22:43.416Z,0
2022-09-22T03:24:45.148Z,0
2022-09-22T03:26:47.048Z,0
2022-09-22T03:28:48.811Z,0
2022-09-22T03:30:50.745Z,0
2022-09-22T03:32:51.963Z,0
2022-09-22T03:34:53.683Z,0
2022-09-22T03:36:55.663Z,0
2022-09-22T03:38:57.246Z,0
2022-09-22T03:40:58.410Z,0
2022-09-22T03:42:59.755Z,0
2022-09-22T03:45:01.192Z,0
2022-09-22T03:47:02.938Z,0
2022-09-22T03:49:04.175Z,0
2022-09-22T03:51:05.233Z,0
2022-09-22T03:53:06.667Z,0
2022-09-22T03:55:08.283Z,0
2022-09-22T03:57:10.168Z,0
2022-09-22T03:59:11.359Z,0
2022-09-22T04:01:12.459Z,0
2022-09-22T04:03:13.939Z,0
2022-09-22T04:05:15.944Z,0
2022-09-22T04:07:17.023Z,0
2022-09-22T04:09:18.863Z,0
2022-09-22T04:11:19.893Z,0
2022-09-22T04:13:21.236Z,0
2022-09-22T04:15:23.241Z,0
2022-09-22T04:17:24.783Z,0
2022-09-22T04:19:26.308Z,0
2022-09-22T04:21:27.733Z,0
2022-09-22T04:23:29.403Z,0
2022-09-22T04:25:31.301Z,0
2022-09-22T04:27:32.561Z,0
2022-09-22T04:29:34.379Z,0
2022-09-22T04:31:35.661Z,0
2022-09-22T04:33:36.939Z,0
2022-09-22T04:35:38.789Z,0
2022-09-22T04:37:40.443Z,0
2022-09-22T04:39:41.690Z,0
2022-09-22T04:41:43.660Z,0
2022-09-22T04:43:44.855Z,0
2022-09-22T04:45:46.841Z,0
2022-09-22T04:47:48.841Z,0
2022-09-22T04:49:50.553Z,0
2022-09-22T04:51:51.778Z,0
2022-09-22T04:53:53.715Z,0
2022-09-22T04:55:54.906Z,0
2022-09-22T04:57:56.236Z,0
2022-09-22T04:59:57.671Z,0
2022-09-22T05:01:59.081Z,0
2022-09-22T05:04:00.793Z,0
2022-09-22T05:06:02.809Z,0
2022-09-22T05:08:04.410Z,0
2022-09-22T05:10:05.555Z,0
2022-09-22T05:12:07.462Z,0
2022-09-22T05:14:08.649Z,0
2022-09-22T05:16:10.114Z,0
2022-09-22T05:18:11.901Z,0
2022-09-22T05:20:13.287Z,0
2022-09-22T05:22:14.348Z,0
2022-09-22T05:24:15.609Z,0
2022-09-22T05:26:17.122Z,0
2022-09-22T05:28:18.857Z,0
2022-09-22T05:30:20.559Z,0
2022-09-22T05:32:22.540Z,0
2022-09-22T05:36:26.006Z,0
2022-09-22T05:38:27.680Z,0
2022-09-22T05:40:29.628Z,0
2022-09-22T05:42:31.561Z,0.421
2022-09-22T05:44:32.832Z,0
2022-09-22T05:46:34.226Z,0
2022-09-22T05:48:35.995Z,0
2022-09-22T05:50:37.596Z,0
2022-09-22T05:52:39.142Z,0
2022-09-22T05:54:40.709Z,0
2022-09-22T05:56:41.967Z,0
2022-09-22T05:58:43.195Z,0
2022-09-22T06:00:44.386Z,0
2022-09-22T06:02:45.873Z,0
2022-09-22T06:04:49.267Z,0
2022-09-22T06:06:48.608Z,0
2022-09-22T06:08:50.217Z,0
2022-09-22T06:10:51.974Z,0
2022-09-22T06:12:53.095Z,0
2022-09-22T06:14:54.163Z,0
2022-09-22T06:18:57.018Z,0
2022-09-22T06:20:58.973Z,0
2022-09-22T06:23:00.974Z,0
2022-09-22T06:25:02.013Z,0
2022-09-22T06:29:05.052Z,0
2022-09-22T06:31:06.765Z,0
2022-09-22T06:33:07.917Z,0
2022-09-22T06:35:09.850Z,0
2022-09-22T06:37:11.596Z,0
2022-09-22T06:39:13.159Z,0
2022-09-22T06:41:14.992Z,0
2022-09-22T06:43:16.260Z,0
2022-09-22T06:45:17.864Z,0.14
2022-09-22T06:47:19.221Z,0
2022-09-22T06:49:20.349Z,0
2022-09-22T06:51:22.265Z,0
2022-09-22T06:53:25.825Z,0
2022-09-22T06:55:24.800Z,0.28
2022-09-22T06:57:26.742Z,0.561
2022-09-22T07:01:29.989Z,0.14
2022-09-22T07:03:31.363Z,0
2022-09-22T07:05:32.804Z,0
2022-09-22T07:07:33.919Z,0
2022-09-22T07:11:39.728Z,0
2022-09-22T07:13:38.477Z,0
2022-09-22T07:15:39.431Z,0
2022-09-22T07:19:41.951Z,0
2022-09-22T07:21:43.211Z,0.982
2022-09-22T07:23:44.469Z,0
2022-09-22T07:25:46.374Z,0
2022-09-22T07:27:48.298Z,0
2022-09-22T07:29:49.246Z,0
2022-09-22T07:31:50.448Z,0.28
2022-09-22T07:33:51.325Z,0
2022-09-22T07:35:52.283Z,0
2022-09-22T07:37:53.450Z,1.825
2022-09-22T07:39:55.212Z,0
2022-09-22T07:41:56.654Z,0.982
2022-09-22T07:43:57.921Z,0.421
2022-09-22T07:45:59.783Z,1.684
2022-09-22T07:48:01.442Z,0
2022-09-22T07:50:02.356Z,0.14
2022-09-22T07:52:04.172Z,0
2022-09-22T07:54:05.815Z,0
2022-09-22T07:56:07.236Z,0.28
2022-09-22T07:58:08.698Z,0.14
2022-09-22T08:00:10.443Z,2.106
2022-09-22T08:02:12.364Z,1.544
2022-09-22T08:04:15.101Z,0.14
2022-09-22T08:06:16.509Z,0
2022-09-22T08:08:17.729Z,0.702
2022-09-22T08:10:18.802Z,0.561
2022-09-22T08:12:19.936Z,0.702
2022-09-22T08:14:21.535Z,0.14
2022-09-22T08:16:22.512Z,0
2022-09-22T08:18:23.850Z,0.561
2022-09-22T08:20:25.171Z,0.702
2022-09-22T08:24:27.937Z,0
2022-09-22T08:26:29.803Z,0
2022-09-22T08:28:31.274Z,0
2022-09-22T08:32:33.834Z,0.28
2022-09-22T08:34:35.256Z,1.965
2022-09-22T08:36:36.441Z,0
2022-09-22T08:38:37.699Z,0
2022-09-22T08:40:39.581Z,0
2022-09-22T08:42:40.913Z,0
2022-09-22T08:44:42.414Z,0.982
2022-09-22T08:46:43.731Z,1.404
2022-09-22T08:48:45.412Z,2.246
2022-09-22T08:50:47.156Z,0.702
2022-09-22T08:52:49.436Z,0.14
2022-09-22T08:54:50.883Z,1.404
2022-09-22T08:56:52.307Z,0.702
2022-09-22T08:58:53.931Z,2.527
2022-09-22T09:00:55.379Z,0.982
2022-09-22T09:02:56.408Z,2.808
2022-09-22T09:04:58.145Z,2.808
2022-09-22T09:06:59.447Z,0.14
2022-09-22T09:09:04.736Z,0.421
2022-09-22T09:11:02.304Z,2.527
2022-09-22T09:13:03.390Z,1.684
2022-09-22T09:15:04.769Z,1.825
2022-09-22T09:17:06.257Z,2.106
2022-09-22T09:19:07.198Z,0.561
2022-09-22T09:21:08.832Z,2.106
2022-09-22T09:23:10.673Z,0.421
2022-09-22T09:25:27.706Z,1.123
2022-09-22T09:27:13.494Z,2.246
2022-09-22T09:29:14.897Z,2.948
2022-09-22T09:31:16.108Z,0.561
2022-09-22T09:35:18.197Z,0.28
2022-09-22T09:37:19.318Z,1.544
2022-09-22T09:39:20.830Z,2.808
2022-09-22T09:41:21.822Z,2.808
2022-09-22T09:43:23.157Z,1.404
2022-09-22T09:45:24.312Z,1.544
2022-09-22T09:47:25.373Z,1.825
2022-09-22T09:49:26.403Z,2.386
2022-09-22T09:51:28.108Z,1.965
2022-09-22T09:53:29.385Z,4.914
2022-09-22T09:55:31.215Z,3.369
2022-09-22T09:57:32.624Z,0
2022-09-22T09:59:34.294Z,2.948
2022-09-22T10:01:35.244Z,5.054
2022-09-22T10:03:36.940Z,4.352
2022-09-22T10:05:37.885Z,4.773
2022-09-22T10:06:21.599Z,4.352
2022-09-22T10:10:24.181Z,2.948
2022-09-22T10:12:25.651Z,5.335
2022-09-22T10:14:26.978Z,2.246
2022-09-22T10:16:27.946Z,4.071
2022-09-22T10:18:28.831Z,3.931
2022-09-22T10:20:30.182Z,0
2022-09-22T10:22:31.637Z,4.633
2022-09-22T10:24:33.446Z,1.825
2022-09-22T10:26:34.908Z,4.352
2022-09-22T10:28:36.676Z,2.667
2022-09-22T10:30:37.738Z,1.123
2022-09-22T10:32:39.171Z,0.982
2022-09-22T10:34:40.279Z,2.808
2022-09-22T10:36:41.116Z,3.51
2022-09-22T10:38:42.981Z,4.773
2022-09-22T10:40:43.855Z,7.862
2022-09-22T10:42:45.596Z,6.739
2022-09-22T10:44:48.935Z,5.756
2022-09-22T10:46:48.569Z,1.825
2022-09-22T10:48:49.838Z,3.79
2022-09-22T10:50:51.028Z,7.16
2022-09-22T10:52:52.310Z,4.773
2022-09-22T10:54:53.749Z,4.773
2022-09-22T10:56:54.686Z,3.369
2022-09-22T10:58:55.794Z,8.002
2022-09-22T11:00:56.779Z,1.684
2022-09-22T11:02:58.371Z,6.037
2022-09-22T11:05:00.523Z,3.369
2022-09-22T11:07:01.492Z,5.335
2022-09-22T11:09:02.556Z,4.352
2022-09-22T11:11:04.028Z,1.965
2022-09-22T11:13:05.662Z,3.088
2022-09-22T11:15:07.325Z,1.263
2022-09-22T11:17:09.106Z,6.739
2022-09-22T11:19:10.289Z,6.739
2022-09-22T11:21:11.963Z,8.985
2022-09-22T11:23:13.033Z,0.561
2022-09-22T11:25:14.827Z,2.246
2022-09-22T11:27:15.878Z,5.054
2022-09-22T11:29:16.902Z,1.965
2022-09-22T11:31:18.591Z,4.352
2022-09-22T11:33:20.288Z,1.825
2022-09-22T11:35:21.980Z,3.931
2022-09-22T11:37:23.270Z,5.335
2022-09-22T11:39:24.414Z,3.931
2022-09-22T11:43:27.007Z,7.722
2022-09-22T11:45:28.796Z,5.194
2022-09-22T11:47:29.844Z,8.283
2022-09-22T11:49:30.947Z,2.527
2022-09-22T11:53:33.842Z,2.527
2022-09-22T11:55:34.707Z,8.424
2022-09-22T11:57:35.933Z,3.229
2022-09-22T11:59:37.443Z,5.475
2022-09-22T12:01:38.862Z,6.598
2022-09-22T12:05:41.206Z,8.002
2022-09-22T12:07:42.774Z,7.441
2022-09-22T12:09:43.622Z,4.071
2022-09-22T12:11:44.854Z,1.825
2022-09-22T12:15:48.265Z,4.352
2022-09-22T12:17:49.255Z,5.896
2022-09-22T12:19:50.928Z,5.475
2022-09-22T12:21:52.632Z,9.406
2022-09-22T12:23:54.073Z,8.845
2022-09-22T12:25:55.719Z,6.458
2022-09-22T12:27:57.498Z,4.212
2022-09-22T12:29:58.793Z,5.756
2022-09-22T12:34:00.886Z,4.212
2022-09-22T12:36:02.632Z,1.965
2022-09-22T12:38:03.833Z,10.81
2022-09-22T12:40:05.110Z,4.773
2022-09-22T12:42:06.216Z,10.67
2022-09-22T12:44:07.482Z,5.616
2022-09-22T12:46:09.242Z,4.633
2022-09-22T12:48:10.512Z,4.773
2022-09-22T12:50:11.091Z,7.581
2022-09-22T12:52:12.260Z,5.475
2022-09-22T12:54:13.563Z,5.335
2022-09-22T12:56:15.364Z,5.616
2022-09-22T12:58:16.743Z,8.002
2022-09-22T13:00:17.977Z,5.335
2022-09-22T13:02:19.392Z,7.02
2022-09-22T13:06:22.072Z,9.126
2022-09-22T13:08:23.101Z,5.335
2022-09-22T13:10:24.860Z,2.667
2022-09-22T13:12:26.322Z,7.441
2022-09-22T13:14:27.155Z,6.458
2022-09-22T13:16:28.404Z,5.054
2022-09-22T13:18:29.603Z,6.177
2022-09-22T13:20:31.094Z,7.581
2022-09-22T13:24:33.751Z,7.862
2022-09-22T13:26:35.292Z,5.475
2022-09-22T13:28:36.792Z,4.071
2022-09-22T13:30:37.958Z,0.702
2022-09-22T13:32:39.463Z,4.071
2022-09-22T13:34:41.153Z,5.335
2022-09-22T13:36:42.090Z,8.283
2022-09-22T13:38:43.130Z,4.773
2022-09-22T13:40:44.628Z,6.318
2022-09-22T13:42:45.780Z,7.862
2022-09-22T13:44:46.934Z,4.071
2022-09-22T13:46:48.167Z,3.65
2022-09-22T13:48:49.506Z,4.212
2022-09-22T13:50:51.306Z,2.948
2022-09-22T13:52:52.849Z,2.667
2022-09-22T13:54:54.607Z,5.054
2022-09-22T13:56:56.107Z,9.687
2022-09-22T13:58:57.739Z,4.914
2022-09-22T14:01:12.921Z,4.914
2022-09-22T14:03:00.328Z,0
2022-09-22T14:07:03.811Z,4.773
2022-09-22T14:09:05.625Z,1.123
2022-09-22T14:11:06.703Z,4.914
2022-09-22T14:13:08.378Z,1.263
2022-09-22T14:17:11.067Z,6.458
2022-09-22T14:19:12.454Z,2.527
2022-09-22T14:21:13.701Z,5.335
2022-09-22T14:23:14.590Z,0.28
2022-09-22T14:25:15.868Z,4.212
2022-09-22T14:27:17.072Z,4.492
2022-09-22T14:29:18.195Z,1.544
2022-09-22T14:31:19.110Z,1.123
2022-09-22T14:33:20.833Z,6.739
2022-09-22T14:35:22.611Z,5.335
2022-09-22T14:37:24.103Z,7.16
2022-09-22T14:39:30.306Z,4.352
2022-09-22T14:41:26.716Z,7.16
2022-09-22T14:45:29.162Z,6.318
2022-09-22T14:47:30.166Z,3.79
2022-09-22T14:49:31.155Z,1.684
2022-09-22T14:51:36.371Z,6.037
2022-09-22T14:53:33.934Z,5.475
2022-09-22T14:55:35.678Z,5.475
2022-09-22T14:59:38.718Z,1.544
2022-09-22T15:01:40.378Z,4.071
2022-09-22T15:03:41.399Z,5.896
2022-09-22T15:05:42.819Z,5.616
2022-09-22T15:07:44.383Z,2.246
2022-09-22T15:09:45.890Z,4.212
2022-09-22T15:11:47.222Z,4.914
2022-09-22T15:13:48.475Z,3.931
2022-09-22T15:15:49.726Z,6.037
2022-09-22T15:17:51.027Z,2.246
2022-09-22T15:19:52.560Z,6.598
2022-09-22T15:21:54.324Z,1.684
2022-09-22T15:23:55.608Z,2.948
2022-09-22T15:25:56.437Z,1.544
2022-09-22T15:27:57.476Z,1.123
2022-09-22T15:29:58.715Z,1.825
2022-09-22T15:32:00.303Z,4.212
2022-09-22T15:34:01.589Z,0.842
2022-09-22T15:36:02.871Z,3.088
2022-09-22T15:38:04.358Z,4.773
2022-09-22T15:40:06.211Z,7.02
2022-09-22T15:42:10.300Z,4.633
2022-09-22T15:44:09.536Z,6.177
2022-09-22T16:22:34.768Z,2.386
2022-09-22T16:24:36.097Z,1.544
2022-09-22T16:26:37.855Z,0.702
2022-09-22T16:30:41.116Z,2.808
2022-09-22T16:32:42.419Z,5.335
2022-09-22T16:34:44.409Z,4.071
2022-09-22T16:36:45.623Z,2.386
2022-09-22T16:40:47.868Z,0.842
2022-09-22T16:42:48.938Z,3.369
2022-09-22T16:44:50.679Z,2.386
2022-09-22T16:46:51.994Z,2.106
2022-09-22T16:48:53.015Z,2.386
2022-09-22T16:51:47.442Z,2.527
2022-09-22T16:53:48.673Z,0.982
2022-09-22T16:55:49.995Z,0.14
2022-09-22T16:57:51.221Z,0
2022-09-22T16:59:52.501Z,1.684
2022-09-22T17:01:53.954Z,0.14
2022-09-22T17:03:55.349Z,0
2022-09-22T17:05:56.501Z,1.123
2022-09-22T17:07:57.885Z,0
2022-09-22T17:09:59.169Z,0
2022-09-22T17:12:01.045Z,0
2022-09-22T17:14:02.717Z,0
2022-09-22T17:18:05.157Z,0
2022-09-22T17:20:06.094Z,0
2022-09-22T17:22:07.662Z,0
2022-09-22T17:24:08.797Z,0.702
2022-09-22T17:26:09.710Z,0
2022-09-22T17:28:10.716Z,0
2022-09-22T17:30:12.026Z,0
2022-09-22T17:32:13.608Z,0
2022-09-22T17:34:15.421Z,0
2022-09-22T17:36:16.855Z,0
2022-09-22T17:38:18.590Z,0
2022-09-22T17:40:20.265Z,0
2022-09-22T17:42:21.536Z,0
2022-09-22T17:44:23.360Z,0
2022-09-22T17:46:24.843Z,0
2022-09-22T17:50:27.467Z,0.421
2022-09-22T17:52:28.572Z,0
2022-09-22T17:54:30.379Z,0
2022-09-22T17:56:31.824Z,0.702
2022-09-22T18:00:34.443Z,0
2022-09-22T18:02:35.705Z,0
2022-09-22T18:04:36.681Z,0
2022-09-22T18:06:38.427Z,0.561
2022-09-22T18:08:40.141Z,0
2022-09-22T18:10:41.454Z,0
2022-09-22T18:12:42.404Z,0
2022-09-22T18:14:43.903Z,0
2022-09-22T18:16:45.770Z,0
2022-09-22T18:18:47.146Z,0.14
2022-09-22T18:20:49.032Z,0.421
2022-09-22T18:22:50.295Z,0.28
2022-09-22T18:24:51.795Z,0
2022-09-22T18:28:54.760Z,0
2022-09-22T18:30:56.150Z,0
2022-09-22T18:32:57.862Z,0
2022-09-22T18:34:59.056Z,0.421
2022-09-22T18:37:00.694Z,0
2022-09-22T18:39:02.208Z,0
2022-09-22T18:41:03.299Z,0
2022-09-22T18:43:04.516Z,0
2022-09-22T18:45:06.231Z,0
2022-09-22T18:47:07.655Z,0
2022-09-22T18:49:09.117Z,0
2022-09-22T18:51:10.101Z,0
2022-09-22T18:53:11.375Z,0
2022-09-22T18:55:12.406Z,0
2022-09-22T18:57:14.137Z,0
2022-09-22T18:59:15.737Z,0
2022-09-22T19:01:16.920Z,0
2022-09-22T19:03:18.837Z,0
2022-09-22T19:05:20.594Z,0
2022-09-22T19:07:21.767Z,0
2022-09-22T19:09:22.836Z,0
2022-09-22T19:11:24.343Z,0
2022-09-22T19:13:26.048Z,0
2022-09-22T19:15:27.975Z,0
2022-09-22T19:17:28.978Z,0
2022-09-22T19:19:30.078Z,0
2022-09-22T19:21:31.458Z,0
2022-09-22T19:23:33.365Z,0
2022-09-22T19:25:34.787Z,0
2022-09-22T19:27:35.993Z,0
2022-09-22T19:29:36.898Z,0
2022-09-22T19:31:38.236Z,0
2022-09-22T19:33:39.841Z,0
2022-09-22T19:35:41.264Z,0
2022-09-22T19:37:42.765Z,0
2022-09-22T19:41:45.797Z,0
2022-09-22T19:43:46.953Z,0
2022-09-22T19:45:48.890Z,0
2022-09-22T19:47:50.767Z,0
2022-09-22T19:49:51.802Z,0
2022-09-22T19:51:52.898Z,0
2022-09-22T19:53:54.592Z,0
2022-09-22T19:55:56.380Z,0
2022-09-22T19:57:57.474Z,0
2022-09-22T19:59:58.771Z,0
2022-09-22T20:02:00.234Z,0
2022-09-22T20:04:01.202Z,0
2022-09-22T20:06:02.930Z,0
2022-09-22T20:08:03.913Z,0
2022-09-22T20:10:05.793Z,0
2022-09-22T20:14:09.456Z,0
2022-09-22T20:16:11.255Z,0
2022-09-22T20:18:12.433Z,0
2022-09-22T20:20:14.067Z,0
2022-09-22T20:22:15.971Z,0
2022-09-22T20:24:17.070Z,0
2022-09-22T20:26:18.888Z,0
2022-09-22T20:28:20.724Z,0
2022-09-22T20:30:22.366Z,0
2022-09-22T20:32:23.536Z,0
2022-09-22T20:34:24.858Z,0.702
2022-09-22T20:36:26.350Z,0
2022-09-22T20:38:27.632Z,0
2022-09-22T20:40:29.211Z,0
2022-09-22T20:42:30.637Z,0
2022-09-22T20:44:31.857Z,0
2022-09-22T20:46:33.321Z,0
2022-09-22T20:48:35.030Z,0
2022-09-22T20:50:36.522Z,0
2022-09-22T20:54:39.775Z,0
2022-09-22T20:58:42.706Z,0
2022-09-22T21:00:44.026Z,0
2022-09-22T21:02:46.161Z,0
2022-09-22T21:04:47.358Z,0
2022-09-22T21:06:49.243Z,0
2022-09-22T21:08:51.112Z,0
2022-09-22T21:10:52.451Z,0
2022-09-22T21:12:55.041Z,0
2022-09-22T21:14:55.082Z,0
2022-09-22T21:16:56.528Z,0
2022-09-22T21:18:58.551Z,0
2022-09-22T21:20:59.531Z,0
2022-09-22T21:23:00.771Z,0
2022-09-22T21:27:03.055Z,0
2022-09-22T21:29:04.091Z,0
2022-09-22T21:31:05.960Z,0
2022-09-22T21:33:11.916Z,0
2022-09-22T21:35:09.556Z,0
2022-09-22T21:39:12.669Z,0
2022-09-22T21:41:14.294Z,0
2022-09-22T21:43:16.027Z,0
2022-09-22T21:45:17.701Z,0
2022-09-22T21:47:18.867Z,0
2022-09-22T21:49:20.798Z,0
2022-09-22T21:51:22.557Z,0
2022-09-22T21:53:24.517Z,0
2022-09-22T21:55:26.229Z,0
2022-09-22T21:57:27.872Z,0
2022-09-22T21:59:29.422Z,0
2022-09-22T22:01:30.698Z,0
2022-09-22T22:03:31.808Z,0
2022-09-22T22:05:33.008Z,0
2022-09-22T22:07:34.540Z,0
2022-09-22T22:11:37.674Z,0
2022-09-22T22:13:39.135Z,0
2022-09-22T22:15:40.755Z,0
2022-09-22T22:17:41.794Z,0
2022-09-22T22:21:45.154Z,0
2022-09-22T22:23:46.269Z,0
2022-09-22T22:25:47.655Z,0
2022-09-22T22:27:48.966Z,0
2022-09-22T22:29:50.887Z,0
2022-09-22T22:31:51.979Z,0
2022-09-22T22:33:53.173Z,0
2022-09-22T22:35:54.786Z,0
2022-09-22T22:37:55.939Z,0
2022-09-22T22:39:57.125Z,0
2022-09-22T22:43:59.562Z,0
2022-09-22T22:46:01.495Z,0
2022-09-22T22:48:02.987Z,0
2022-09-22T22:50:04.260Z,0
2022-09-22T22:52:05.233Z,0
2022-09-22T22:54:06.723Z,0
2022-09-22T22:56:08.321Z,0
2022-09-22T22:58:10.086Z,0
2022-09-22T23:00:11.909Z,0
2022-09-22T23:04:15.598Z,0
2022-09-22T23:06:17.200Z,0
2022-09-22T23:08:18.207Z,0
2022-09-22T23:10:20.061Z,0
2022-09-22T23:12:21.271Z,0
2022-09-22T23:14:22.968Z,0
2022-09-22T23:16:24.294Z,0
2022-09-22T23:18:25.402Z,0
2022-09-22T23:20:26.699Z,0
2022-09-22T23:22:28.263Z,0
2022-09-22T23:24:29.657Z,0
2022-09-22T23:26:30.999Z,0
2022-09-22T23:28:32.437Z,0
2022-09-22T23:30:34.342Z,0
2022-09-22T23:32:36.189Z,0
2022-09-22T23:34:38.089Z,0
2022-09-22T23:36:39.447Z,0
2022-09-22T23:37:23.343Z,0
2022-09-22T23:39:24.990Z,0
2022-09-22T23:41:26.387Z,0
2022-09-22T23:43:28.143Z,0
2022-09-22T23:45:29.397Z,0
2022-09-22T23:49:32.055Z,0
2022-09-22T23:51:33.160Z,0
2022-09-22T23:53:34.275Z,0
2022-09-22T23:55:36.265Z,0
2022-09-22T23:57:37.611Z,0
2022-09-22T23:59:38.721Z,0
